Pagrindinis puslapis
METAR-TAF:

METAR-TAF

Oro uostai :

Singapūras, Singapūras

platuma: 01-25-08N, ilguma: 103-51-57E, Aukštis: 11 m

Dabartinis oras

Ataskaita buvo paskelbta 43 minutes, ne 07:00 UTC
Vėjas 19 kt iš Šiaurės/Šiaurės Rytų
Temperatūra 30°C
Drėgmė 62%
Slėgis 1011 hPa
Matomumas 10 km arba daugiau
Mažai debesys ne aukštis 1800 ft
Išsisklaidę debesys ne aukštis 6000 ft

METAR: WSSL 230700Z 03019KT 9999 FEW018 SCT060 30/22 Q1011

Laikas: 15:43 (07:43 UTC)

Prognozė

Ataskaita buvo paskelbta 2 valandos ir 43 minutes, ne 05:00 UTC
Prognozė galioja nuo 23 metu 06 UTC su 24 metu 12 UTC
Vėjas 11 kt iš Šiaurės/Šiaurės Rytų
Matomumas 10 km arba daugiau
Mažai debesys ne aukštis 1500 ft
Išsisklaidę debesys ne aukštis 2000 ft
Laikinai
nuo 23 metu 06 UTC su 23 metu 11 UTC
Vėjas 15 kt iš Šiaurės/Šiaurės Rytų su gūsio iki 25 kt

TAF: WSSL 230500Z 2306/2412 03011KT 9999 FEW015 SCT020 TEMPO 2306/2311 03015G25KT

Orai ataskaitas ir orų prognozės (METAR, TAF).

turimą stotys yra geltonos ir raudonos taškus žemėlapyje.

Perkelti pele per norėdami pamatyti stoties vardą.

Tada spustelėkite, norėdami matyti oro stebėjimo ir prognozės.

Norėdami pakeisti žemėlapį: spustelėkite ant žalios mygtukų su juodo kryžiaus žemyn,; žalią mygtuką su brūkšneliu, jei norite nutolinti; arba žalių rodyklių gretimoms žemėlapius.


METAR-TAF: